sensor_id;sensor_type;location;lat;lon;timestamp;P1;durP1;ratioP1;P2;durP2;ratioP2
70927;SDS011;58587;53.034;18.576;2022-11-21T15:37:00;119.25;;;41.75;;
70927;SDS011;58587;53.034;18.576;2022-11-21T15:39:49;108.65;;;40.85;;
70927;SDS011;58587;53.034;18.576;2022-11-21T15:47:43;189.10;;;74.57;;
70927;SDS011;58587;53.034;18.576;2022-11-21T15:50:08;164.30;;;55.43;;
70927;SDS011;58587;53.034;18.576;2022-11-21T15:52:43;159.23;;;59.55;;
70927;SDS011;58587;53.034;18.576;2022-11-21T15:55:17;138.67;;;48.37;;
70927;SDS011;58587;53.034;18.576;2022-11-21T15:57:48;104.10;;;39.22;;
70927;SDS011;58587;53.034;18.576;2022-11-21T16:00:14;103.27;;;39.70;;
70927;SDS011;58587;53.034;18.576;2022-11-21T16:02:40;157.20;;;63.28;;
70927;SDS011;58587;53.034;18.576;2022-11-21T16:05:08;147.80;;;50.47;;
70927;SDS011;58587;53.034;18.576;2022-11-21T16:07:38;106.32;;;40.92;;
70927;SDS011;58587;53.034;18.576;2022-11-21T16:10:05;109.10;;;39.60;;
70927;SDS011;58587;53.034;18.576;2022-11-21T16:12:31;94.00;;;36.55;;
70927;SDS011;58587;53.034;18.576;2022-11-21T16:14:56;93.17;;;36.10;;
70927;SDS011;58587;53.034;18.576;2022-11-21T16:17:21;97.67;;;37.93;;
70927;SDS011;58587;53.034;18.576;2022-11-21T16:19:47;95.57;;;38.30;;
70927;SDS011;58587;53.034;18.576;2022-11-21T16:22:12;101.47;;;38.70;;
70927;SDS011;58587;53.034;18.576;2022-11-21T16:24:37;116.17;;;41.23;;
70927;SDS011;58587;53.034;18.576;2022-11-21T16:27:03;114.23;;;42.70;;
70927;SDS011;58587;53.034;18.576;2022-11-21T16:29:28;125.57;;;45.23;;
70927;SDS011;58587;53.034;18.576;2022-11-21T16:31:53;120.47;;;45.13;;
70927;SDS011;58587;53.034;18.576;2022-11-21T16:34:20;130.48;;;48.60;;
70927;SDS011;58587;53.034;18.576;2022-11-21T16:36:46;147.02;;;53.65;;
70927;SDS011;58587;53.034;18.576;2022-11-21T16:39:12;132.17;;;51.13;;
70927;SDS011;58587;53.034;18.576;2022-11-21T16:41:37;129.27;;;49.58;;
70927;SDS011;58587;53.034;18.576;2022-11-21T16:44:05;133.27;;;49.87;;
70927;SDS011;58587;53.034;18.576;2022-11-21T16:46:37;127.57;;;48.88;;
70927;SDS011;58587;53.034;18.576;2022-11-21T16:49:06;117.78;;;46.97;;
70927;SDS011;58587;53.034;18.576;2022-11-21T16:51:32;105.13;;;41.50;;
70927;SDS011;58587;53.034;18.576;2022-11-21T16:53:58;113.50;;;44.97;;
70927;SDS011;58587;53.034;18.576;2022-11-21T16:56:23;116.27;;;44.90;;
70927;SDS011;58587;53.034;18.576;2022-11-21T16:58:48;128.20;;;46.53;;
70927;SDS011;58587;53.034;18.576;2022-11-21T17:01:14;115.90;;;43.80;;
70927;SDS011;58587;53.034;18.576;2022-11-21T17:03:42;114.80;;;44.58;;
70927;SDS011;58587;53.034;18.576;2022-11-21T17:06:09;115.45;;;46.15;;
70927;SDS011;58587;53.034;18.576;2022-11-21T17:08:36;134.98;;;49.85;;
70927;SDS011;58587;53.034;18.576;2022-11-21T17:11:12;150.83;;;55.27;;
70927;SDS011;58587;53.034;18.576;2022-11-21T17:13:48;122.22;;;47.42;;
70927;SDS011;58587;53.034;18.576;2022-11-21T17:16:15;130.13;;;48.42;;
70927;SDS011;58587;53.034;18.576;2022-11-21T17:18:43;121.43;;;45.45;;
70927;SDS011;58587;53.034;18.576;2022-11-21T17:21:09;119.30;;;43.70;;
70927;SDS011;58587;53.034;18.576;2022-11-21T17:23:37;122.73;;;47.37;;
70927;SDS011;58587;53.034;18.576;2022-11-21T17:26:04;127.25;;;47.22;;
70927;SDS011;58587;53.034;18.576;2022-11-21T17:28:31;114.75;;;46.88;;
70927;SDS011;58587;53.034;18.576;2022-11-21T17:30:57;130.63;;;49.17;;
70927;SDS011;58587;53.034;18.576;2022-11-21T17:33:23;138.03;;;49.47;;
70927;SDS011;58587;53.034;18.576;2022-11-21T17:35:49;124.18;;;46.55;;
70927;SDS011;58587;53.034;18.576;2022-11-21T17:38:14;119.63;;;46.20;;
70927;SDS011;58587;53.034;18.576;2022-11-21T17:40:40;136.05;;;50.75;;
70927;SDS011;58587;53.034;18.576;2022-11-21T17:43:05;126.07;;;48.10;;
70927;SDS011;58587;53.034;18.576;2022-11-21T17:45:33;129.33;;;47.50;;
70927;SDS011;58587;53.034;18.576;2022-11-21T17:47:59;124.75;;;48.67;;
70927;SDS011;58587;53.034;18.576;2022-11-21T17:50:24;132.57;;;48.60;;
70927;SDS011;58587;53.034;18.576;2022-11-21T17:52:49;135.53;;;50.47;;
70927;SDS011;58587;53.034;18.576;2022-11-21T17:55:14;233.90;;;87.20;;
70927;SDS011;58587;53.034;18.576;2022-11-21T17:57:40;270.77;;;99.73;;
70927;SDS011;58587;53.034;18.576;2022-11-21T18:00:05;220.87;;;76.63;;
70927;SDS011;58587;53.034;18.576;2022-11-21T18:02:31;173.60;;;61.20;;
70927;SDS011;58587;53.034;18.576;2022-11-21T18:04:57;149.07;;;58.83;;
70927;SDS011;58587;53.034;18.576;2022-11-21T18:07:22;155.10;;;55.80;;
70927;SDS011;58587;53.034;18.576;2022-11-21T18:09:47;142.83;;;52.77;;
70927;SDS011;58587;53.034;18.576;2022-11-21T18:12:12;146.50;;;56.53;;
70927;SDS011;58587;53.034;18.576;2022-11-21T18:14:38;138.77;;;51.53;;
70927;SDS011;58587;53.034;18.576;2022-11-21T18:17:03;199.07;;;64.60;;
70927;SDS011;58587;53.034;18.576;2022-11-21T18:19:28;183.20;;;62.03;;
70927;SDS011;58587;53.034;18.576;2022-11-21T18:21:54;177.90;;;59.67;;
70927;SDS011;58587;53.034;18.576;2022-11-21T18:24:19;191.27;;;63.63;;
70927;SDS011;58587;53.034;18.576;2022-11-21T18:26:44;187.43;;;60.53;;
70927;SDS011;58587;53.034;18.576;2022-11-21T18:29:10;212.53;;;65.37;;
70927;SDS011;58587;53.034;18.576;2022-11-21T18:31:35;184.23;;;62.60;;
70927;SDS011;58587;53.034;18.576;2022-11-21T18:34:03;144.23;;;51.35;;
70927;SDS011;58587;53.034;18.576;2022-11-21T18:36:29;135.45;;;51.38;;
70927;SDS011;58587;53.034;18.576;2022-11-21T18:38:55;126.68;;;47.60;;
70927;SDS011;58587;53.034;18.576;2022-11-21T18:41:23;125.25;;;46.33;;
70927;SDS011;58587;53.034;18.576;2022-11-21T18:43:50;126.13;;;47.70;;
70927;SDS011;58587;53.034;18.576;2022-11-21T18:46:26;116.13;;;45.88;;
70927;SDS011;58587;53.034;18.576;2022-11-21T18:48:52;123.13;;;46.80;;
70927;SDS011;58587;53.034;18.576;2022-11-21T18:51:22;126.63;;;47.42;;
70927;SDS011;58587;53.034;18.576;2022-11-21T18:53:49;119.97;;;44.17;;
70927;SDS011;58587;53.034;18.576;2022-11-21T18:56:22;121.80;;;46.53;;
70927;SDS011;58587;53.034;18.576;2022-11-21T18:58:49;121.65;;;44.90;;
70927;SDS011;58587;53.034;18.576;2022-11-21T19:01:16;108.38;;;43.55;;
70927;SDS011;58587;53.034;18.576;2022-11-21T19:03:46;115.87;;;42.77;;
70927;SDS011;58587;53.034;18.576;2022-11-21T19:06:13;117.47;;;45.92;;
70927;SDS011;58587;53.034;18.576;2022-11-21T19:08:41;168.00;;;54.00;;
70927;SDS011;58587;53.034;18.576;2022-11-21T19:11:09;184.10;;;65.93;;
70927;SDS011;58587;53.034;18.576;2022-11-21T19:13:35;170.35;;;61.63;;
70927;SDS011;58587;53.034;18.576;2022-11-21T19:16:05;159.40;;;56.27;;
70927;SDS011;58587;53.034;18.576;2022-11-21T19:18:33;161.02;;;59.22;;
70927;SDS011;58587;53.034;18.576;2022-11-21T19:21:04;149.38;;;57.13;;
70927;SDS011;58587;53.034;18.576;2022-11-21T19:23:33;130.93;;;49.53;;
70927;SDS011;58587;53.034;18.576;2022-11-21T19:26:03;122.55;;;46.25;;
70927;SDS011;58587;53.034;18.576;2022-11-21T19:28:30;129.80;;;49.00;;
70927;SDS011;58587;53.034;18.576;2022-11-21T19:30:56;121.32;;;47.28;;
70927;SDS011;58587;53.034;18.576;2022-11-21T19:33:22;128.57;;;46.10;;
70927;SDS011;58587;53.034;18.576;2022-11-21T19:35:49;125.65;;;45.38;;
70927;SDS011;58587;53.034;18.576;2022-11-21T19:38:15;119.28;;;44.20;;
70927;SDS011;58587;53.034;18.576;2022-11-21T19:40:40;117.63;;;43.07;;
70927;SDS011;58587;53.034;18.576;2022-11-21T19:43:24;118.70;;;42.95;;
70927;SDS011;58587;53.034;18.576;2022-11-21T19:45:49;113.90;;;44.47;;
70927;SDS011;58587;53.034;18.576;2022-11-21T19:48:15;110.63;;;42.53;;
70927;SDS011;58587;53.034;18.576;2022-11-21T19:50:40;110.07;;;40.05;;
70927;SDS011;58587;53.034;18.576;2022-11-21T19:53:06;107.17;;;41.00;;
70927;SDS011;58587;53.034;18.576;2022-11-21T19:55:31;115.43;;;42.90;;
70927;SDS011;58587;53.034;18.576;2022-11-21T19:57:57;106.67;;;38.20;;
70927;SDS011;58587;53.034;18.576;2022-11-21T20:00:22;107.10;;;41.75;;
70927;SDS011;58587;53.034;18.576;2022-11-21T20:02:49;106.13;;;38.78;;
70927;SDS011;58587;53.034;18.576;2022-11-21T20:05:15;107.78;;;40.10;;
70927;SDS011;58587;53.034;18.576;2022-11-21T20:07:41;133.17;;;45.47;;
70927;SDS011;58587;53.034;18.576;2022-11-21T20:10:06;114.80;;;41.23;;
70927;SDS011;58587;53.034;18.576;2022-11-21T20:12:33;103.72;;;39.35;;
70927;SDS011;58587;53.034;18.576;2022-11-21T20:14:58;109.53;;;41.43;;
70927;SDS011;58587;53.034;18.576;2022-11-21T20:17:26;117.50;;;44.17;;
70927;SDS011;58587;53.034;18.576;2022-11-21T20:19:52;114.90;;;42.43;;
70927;SDS011;58587;53.034;18.576;2022-11-21T20:22:17;119.18;;;44.35;;
70927;SDS011;58587;53.034;18.576;2022-11-21T20:24:43;115.97;;;43.58;;
70927;SDS011;58587;53.034;18.576;2022-11-21T20:27:08;119.30;;;43.50;;
70927;SDS011;58587;53.034;18.576;2022-11-21T20:29:34;123.57;;;44.03;;
70927;SDS011;58587;53.034;18.576;2022-11-21T20:31:59;126.80;;;46.60;;
70927;SDS011;58587;53.034;18.576;2022-11-21T20:34:26;112.90;;;43.30;;
70927;SDS011;58587;53.034;18.576;2022-11-21T20:36:52;124.50;;;44.47;;
70927;SDS011;58587;53.034;18.576;2022-11-21T20:39:17;122.43;;;45.93;;
70927;SDS011;58587;53.034;18.576;2022-11-21T20:41:44;113.88;;;43.63;;
70927;SDS011;58587;53.034;18.576;2022-11-21T20:46:40;131.40;;;48.30;;
70927;SDS011;58587;53.034;18.576;2022-11-21T20:49:05;134.90;;;50.17;;
70927;SDS011;58587;53.034;18.576;2022-11-21T20:51:31;135.70;;;53.13;;
70927;SDS011;58587;53.034;18.576;2022-11-21T20:53:56;152.23;;;53.53;;
70927;SDS011;58587;53.034;18.576;2022-11-21T20:56:21;154.33;;;54.03;;
70927;SDS011;58587;53.034;18.576;2022-11-21T20:58:47;170.18;;;54.80;;
70927;SDS011;58587;53.034;18.576;2022-11-21T21:01:14;152.37;;;52.27;;
70927;SDS011;58587;53.034;18.576;2022-11-21T21:03:40;144.75;;;52.83;;
70927;SDS011;58587;53.034;18.576;2022-11-21T21:06:07;168.83;;;60.07;;
70927;SDS011;58587;53.034;18.576;2022-11-21T21:08:35;147.77;;;53.67;;
70927;SDS011;58587;53.034;18.576;2022-11-21T21:11:02;170.57;;;61.63;;
70927;SDS011;58587;53.034;18.576;2022-11-21T21:13:28;198.13;;;68.53;;
70927;SDS011;58587;53.034;18.576;2022-11-21T21:15:54;239.25;;;83.38;;
70927;SDS011;58587;53.034;18.576;2022-11-21T21:18:19;201.33;;;71.33;;
70927;SDS011;58587;53.034;18.576;2022-11-21T21:20:44;206.13;;;63.47;;
70927;SDS011;58587;53.034;18.576;2022-11-21T21:23:10;214.93;;;67.18;;
70927;SDS011;58587;53.034;18.576;2022-11-21T21:25:35;256.93;;;83.87;;
70927;SDS011;58587;53.034;18.576;2022-11-21T21:28:00;227.77;;;72.00;;
70927;SDS011;58587;53.034;18.576;2022-11-21T21:30:26;184.80;;;73.17;;
70927;SDS011;58587;53.034;18.576;2022-11-21T21:32:51;189.33;;;70.30;;
70927;SDS011;58587;53.034;18.576;2022-11-21T21:35:19;135.70;;;47.90;;
70927;SDS011;58587;53.034;18.576;2022-11-21T21:37:45;144.18;;;49.53;;
70927;SDS011;58587;53.034;18.576;2022-11-21T21:40:12;164.85;;;64.25;;
70927;SDS011;58587;53.034;18.576;2022-11-21T21:42:38;149.10;;;56.28;;
70927;SDS011;58587;53.034;18.576;2022-11-21T21:45:04;137.07;;;48.67;;
70927;SDS011;58587;53.034;18.576;2022-11-21T21:47:30;146.32;;;49.15;;
70927;SDS011;58587;53.034;18.576;2022-11-21T21:49:55;150.83;;;50.70;;
70927;SDS011;58587;53.034;18.576;2022-11-21T21:52:20;134.87;;;46.90;;
70927;SDS011;58587;53.034;18.576;2022-11-21T21:54:46;134.10;;;45.80;;
70927;SDS011;58587;53.034;18.576;2022-11-21T21:57:12;130.00;;;47.42;;
70927;SDS011;58587;53.034;18.576;2022-11-21T21:59:38;147.47;;;50.10;;
70927;SDS011;58587;53.034;18.576;2022-11-21T22:02:03;135.47;;;45.83;;
70927;SDS011;58587;53.034;18.576;2022-11-21T22:04:28;183.90;;;60.03;;
70927;SDS011;58587;53.034;18.576;2022-11-21T22:06:55;168.35;;;54.33;;
70927;SDS011;58587;53.034;18.576;2022-11-21T22:09:22;140.43;;;51.35;;
70927;SDS011;58587;53.034;18.576;2022-11-21T22:11:47;186.13;;;79.93;;
70927;SDS011;58587;53.034;18.576;2022-11-21T22:14:13;189.07;;;70.27;;
70927;SDS011;58587;53.034;18.576;2022-11-21T22:16:40;183.93;;;62.30;;
70927;SDS011;58587;53.034;18.576;2022-11-21T22:19:06;151.30;;;48.80;;
70927;SDS011;58587;53.034;18.576;2022-11-21T22:21:33;156.68;;;52.60;;
